sensor_id;sensor_type;location;lat;lon;timestamp;pressure;altitude;pressure_sealevel;temperature;humidity
85266;BME280;75676;49.522;19.724;2024-01-15T00:00:42;92162.25;;;-3.37;81.10
85266;BME280;75676;49.522;19.724;2024-01-15T00:03:28;92157.03;;;-3.33;81.13
85266;BME280;75676;49.522;19.724;2024-01-15T00:05:53;92144.53;;;-3.35;81.13
85266;BME280;75676;49.522;19.724;2024-01-15T00:08:20;92149.25;;;-3.30;80.35
85266;BME280;75676;49.522;19.724;2024-01-15T00:10:45;92141.06;;;-3.25;80.27
85266;BME280;75676;49.522;19.724;2024-01-15T00:13:11;92148.81;;;-3.25;80.79
85266;BME280;75676;49.522;19.724;2024-01-15T00:15:38;92140.66;;;-3.23;80.53
85266;BME280;75676;49.522;19.724;2024-01-15T00:18:04;92146.91;;;-3.21;80.29
85266;BME280;75676;49.522;19.724;2024-01-15T00:20:30;92141.81;;;-3.28;80.82
85266;BME280;75676;49.522;19.724;2024-01-15T00:22:56;92139.72;;;-3.36;80.68
85266;BME280;75676;49.522;19.724;2024-01-15T00:25:22;92140.75;;;-3.30;81.16
85266;BME280;75676;49.522;19.724;2024-01-15T00:27:49;92141.50;;;-3.30;80.52
85266;BME280;75676;49.522;19.724;2024-01-15T00:30:15;92133.97;;;-3.21;80.37
85266;BME280;75676;49.522;19.724;2024-01-15T00:32:41;92128.81;;;-3.21;79.98
85266;BME280;75676;49.522;19.724;2024-01-15T00:35:07;92134.88;;;-3.31;80.55
85266;BME280;75676;49.522;19.724;2024-01-15T00:37:33;92127.13;;;-3.31;80.60
85266;BME280;75676;49.522;19.724;2024-01-15T00:40:00;92124.53;;;-3.31;80.38
85266;BME280;75676;49.522;19.724;2024-01-15T00:42:26;92120.47;;;-3.32;80.83
85266;BME280;75676;49.522;19.724;2024-01-15T00:44:52;92118.69;;;-3.35;81.00
85266;BME280;75676;49.522;19.724;2024-01-15T00:47:19;92102.78;;;-3.33;80.70
85266;BME280;75676;49.522;19.724;2024-01-15T00:49:46;92109.13;;;-3.38;81.11
85266;BME280;75676;49.522;19.724;2024-01-15T00:52:11;92097.75;;;-3.44;80.89
85266;BME280;75676;49.522;19.724;2024-01-15T00:54:37;92100.34;;;-3.44;81.21
85266;BME280;75676;49.522;19.724;2024-01-15T00:57:04;92095.22;;;-3.48;81.53
85266;BME280;75676;49.522;19.724;2024-01-15T00:59:30;92088.16;;;-3.44;81.45
85266;BME280;75676;49.522;19.724;2024-01-15T01:01:56;92090.84;;;-3.51;81.15
85266;BME280;75676;49.522;19.724;2024-01-15T01:04:22;92085.97;;;-3.45;81.04
85266;BME280;75676;49.522;19.724;2024-01-15T01:06:48;92083.50;;;-3.52;81.58
85266;BME280;75676;49.522;19.724;2024-01-15T01:09:14;92090.44;;;-3.49;81.76
85266;BME280;75676;49.522;19.724;2024-01-15T01:11:40;92091.19;;;-3.49;81.03
85266;BME280;75676;49.522;19.724;2024-01-15T01:14:06;92085.63;;;-3.47;81.03
85266;BME280;75676;49.522;19.724;2024-01-15T01:16:32;92077.59;;;-3.53;81.11
85266;BME280;75676;49.522;19.724;2024-01-15T01:19:07;92077.59;;;-3.53;81.09
85266;BME280;75676;49.522;19.724;2024-01-15T01:21:33;92075.75;;;-3.52;81.29
85266;BME280;75676;49.522;19.724;2024-01-15T01:23:59;92074.50;;;-3.44;80.98
85266;BME280;75676;49.522;19.724;2024-01-15T01:26:25;92060.84;;;-3.41;80.66
85266;BME280;75676;49.522;19.724;2024-01-15T01:28:51;92064.19;;;-3.44;80.73
85266;BME280;75676;49.522;19.724;2024-01-15T01:31:17;92053.81;;;-3.41;80.39
85266;BME280;75676;49.522;19.724;2024-01-15T01:33:43;92052.66;;;-3.40;80.41
85266;BME280;75676;49.522;19.724;2024-01-15T01:36:09;92044.09;;;-3.33;80.93
85266;BME280;75676;49.522;19.724;2024-01-15T01:38:36;92042.69;;;-3.38;80.57
85266;BME280;75676;49.522;19.724;2024-01-15T01:41:03;92033.09;;;-3.37;80.58
85266;BME280;75676;49.522;19.724;2024-01-15T01:43:28;92034.56;;;-3.36;80.50
85266;BME280;75676;49.522;19.724;2024-01-15T01:45:56;92028.72;;;-3.40;80.08
85266;BME280;75676;49.522;19.724;2024-01-15T01:48:24;92024.22;;;-3.36;80.03
85266;BME280;75676;49.522;19.724;2024-01-15T01:50:53;92017.66;;;-3.41;80.73
85266;BME280;75676;49.522;19.724;2024-01-15T01:53:20;92016.41;;;-3.32;80.71
85266;BME280;75676;49.522;19.724;2024-01-15T01:55:47;92014.16;;;-3.30;79.95
85266;BME280;75676;49.522;19.724;2024-01-15T01:58:14;92007.59;;;-3.35;80.39
85266;BME280;75676;49.522;19.724;2024-01-15T02:00:40;92012.06;;;-3.39;80.22
85266;BME280;75676;49.522;19.724;2024-01-15T02:03:06;92016.56;;;-3.43;80.73
85266;BME280;75676;49.522;19.724;2024-01-15T02:05:33;92015.53;;;-3.46;80.94
85266;BME280;75676;49.522;19.724;2024-01-15T02:08:00;92018.31;;;-3.36;80.31
85266;BME280;75676;49.522;19.724;2024-01-15T02:13:02;92010.97;;;-3.38;80.83
85266;BME280;75676;49.522;19.724;2024-01-15T02:15:28;92002.88;;;-3.40;80.76
85266;BME280;75676;49.522;19.724;2024-01-15T02:18:02;92002.88;;;-3.40;80.94
85266;BME280;75676;49.522;19.724;2024-01-15T02:20:28;92006.25;;;-3.43;80.63
85266;BME280;75676;49.522;19.724;2024-01-15T02:23:00;91998.84;;;-3.41;80.51
85266;BME280;75676;49.522;19.724;2024-01-15T02:25:26;91994.00;;;-3.39;80.24
85266;BME280;75676;49.522;19.724;2024-01-15T02:27:52;91998.78;;;-3.38;80.41
85266;BME280;75676;49.522;19.724;2024-01-15T02:30:18;91997.84;;;-3.51;81.08
85266;BME280;75676;49.522;19.724;2024-01-15T02:32:43;91993.78;;;-3.48;81.00
85266;BME280;75676;49.522;19.724;2024-01-15T02:35:10;91990.63;;;-3.36;80.41
85266;BME280;75676;49.522;19.724;2024-01-15T02:37:35;91993.59;;;-3.38;81.02
85266;BME280;75676;49.522;19.724;2024-01-15T02:40:01;91990.34;;;-3.42;80.45
85266;BME280;75676;49.522;19.724;2024-01-15T02:42:27;91992.56;;;-3.40;79.77
85266;BME280;75676;49.522;19.724;2024-01-15T02:44:53;91999.56;;;-3.41;79.93
85266;BME280;75676;49.522;19.724;2024-01-15T02:47:19;91997.97;;;-3.34;79.52
85266;BME280;75676;49.522;19.724;2024-01-15T02:49:44;92001.25;;;-3.30;79.63
85266;BME280;75676;49.522;19.724;2024-01-15T02:52:10;91994.69;;;-3.35;78.37
85266;BME280;75676;49.522;19.724;2024-01-15T02:54:36;91985.78;;;-3.34;78.56
85266;BME280;75676;49.522;19.724;2024-01-15T02:57:01;91984.84;;;-3.44;79.19
85266;BME280;75676;49.522;19.724;2024-01-15T02:59:27;91976.94;;;-3.33;78.47
85266;BME280;75676;49.522;19.724;2024-01-15T03:01:53;91967.59;;;-3.27;78.45
85266;BME280;75676;49.522;19.724;2024-01-15T03:04:19;91969.19;;;-3.33;79.25
85266;BME280;75676;49.522;19.724;2024-01-15T03:06:44;91977.66;;;-3.32;78.62
85266;BME280;75676;49.522;19.724;2024-01-15T03:09:10;91963.00;;;-3.39;78.11
85266;BME280;75676;49.522;19.724;2024-01-15T03:11:39;91965.47;;;-3.32;77.69
85266;BME280;75676;49.522;19.724;2024-01-15T03:14:06;91963.34;;;-3.37;78.18
85266;BME280;75676;49.522;19.724;2024-01-15T03:16:31;91954.94;;;-3.41;77.42
85266;BME280;75676;49.522;19.724;2024-01-15T03:18:57;91957.09;;;-3.40;78.00
85266;BME280;75676;49.522;19.724;2024-01-15T03:21:23;91954.94;;;-3.41;78.57
85266;BME280;75676;49.522;19.724;2024-01-15T03:23:48;91947.22;;;-3.45;77.93
85266;BME280;75676;49.522;19.724;2024-01-15T03:26:14;91945.38;;;-3.44;79.38
85266;BME280;75676;49.522;19.724;2024-01-15T03:28:40;91944.16;;;-3.36;78.89
85266;BME280;75676;49.522;19.724;2024-01-15T03:31:07;91948.31;;;-3.42;78.63
85266;BME280;75676;49.522;19.724;2024-01-15T03:33:33;91944.59;;;-3.41;78.74
85266;BME280;75676;49.522;19.724;2024-01-15T03:35:59;91945.34;;;-3.41;78.06
85266;BME280;75676;49.522;19.724;2024-01-15T03:38:30;91946.06;;;-3.40;79.51
85266;BME280;75676;49.522;19.724;2024-01-15T03:40:55;91945.09;;;-3.50;79.41
85266;BME280;75676;49.522;19.724;2024-01-15T03:43:21;91937.91;;;-3.39;78.31
85266;BME280;75676;49.522;19.724;2024-01-15T03:45:47;91941.41;;;-3.29;77.36
85266;BME280;75676;49.522;19.724;2024-01-15T03:48:12;91939.44;;;-3.41;77.81
85266;BME280;75676;49.522;19.724;2024-01-15T03:50:38;91940.81;;;-3.36;78.34
85266;BME280;75676;49.522;19.724;2024-01-15T03:53:04;91926.91;;;-3.43;77.71
85266;BME280;75676;49.522;19.724;2024-01-15T03:55:30;91923.31;;;-3.49;78.17
85266;BME280;75676;49.522;19.724;2024-01-15T03:57:56;91915.66;;;-3.56;78.90
85266;BME280;75676;49.522;19.724;2024-01-15T04:00:22;91921.47;;;-3.48;78.59
85266;BME280;75676;49.522;19.724;2024-01-15T04:02:48;91921.81;;;-3.46;78.45
85266;BME280;75676;49.522;19.724;2024-01-15T04:05:13;91916.13;;;-3.61;77.93
85266;BME280;75676;49.522;19.724;2024-01-15T04:07:39;91898.75;;;-3.57;78.63
85266;BME280;75676;49.522;19.724;2024-01-15T04:10:05;91900.69;;;-3.64;78.95
85266;BME280;75676;49.522;19.724;2024-01-15T04:12:31;91897.09;;;-3.70;78.74
85266;BME280;75676;49.522;19.724;2024-01-15T04:14:57;91894.72;;;-3.61;78.30
85266;BME280;75676;49.522;19.724;2024-01-15T04:17:23;91889.72;;;-3.68;78.50
85266;BME280;75676;49.522;19.724;2024-01-15T04:19:48;91887.16;;;-3.72;78.14
85266;BME280;75676;49.522;19.724;2024-01-15T04:22:14;91887.63;;;-3.77;79.07
85266;BME280;75676;49.522;19.724;2024-01-15T04:24:40;91883.19;;;-3.76;79.35
85266;BME280;75676;49.522;19.724;2024-01-15T04:27:07;91884.81;;;-3.63;78.18
85266;BME280;75676;49.522;19.724;2024-01-15T04:29:33;91876.06;;;-3.69;78.50
85266;BME280;75676;49.522;19.724;2024-01-15T04:31:59;91878.38;;;-3.74;79.09
85266;BME280;75676;49.522;19.724;2024-01-15T04:34:25;91872.19;;;-3.81;79.54
85266;BME280;75676;49.522;19.724;2024-01-15T04:36:51;91874.31;;;-3.75;79.69
85266;BME280;75676;49.522;19.724;2024-01-15T04:39:17;91873.66;;;-3.79;79.17
85266;BME280;75676;49.522;19.724;2024-01-15T04:41:43;91865.63;;;-3.85;79.43
85266;BME280;75676;49.522;19.724;2024-01-15T04:44:09;91876.03;;;-3.89;79.74
85266;BME280;75676;49.522;19.724;2024-01-15T04:46:34;91866.38;;;-3.85;79.73
85266;BME280;75676;49.522;19.724;2024-01-15T04:49:00;91872.19;;;-3.81;79.61
85266;BME280;75676;49.522;19.724;2024-01-15T04:51:26;91871.91;;;-3.86;79.40
85266;BME280;75676;49.522;19.724;2024-01-15T04:53:51;91873.59;;;-3.76;79.16
85266;BME280;75676;49.522;19.724;2024-01-15T04:56:17;91871.53;;;-3.85;78.96
85266;BME280;75676;49.522;19.724;2024-01-15T04:58:43;91859.22;;;-3.77;78.47
85266;BME280;75676;49.522;19.724;2024-01-15T05:01:09;91865.13;;;-3.76;78.68
85266;BME280;75676;49.522;19.724;2024-01-15T05:03:35;91869.06;;;-3.68;78.81
85266;BME280;75676;49.522;19.724;2024-01-15T05:06:01;91863.94;;;-3.72;79.44
85266;BME280;75676;49.522;19.724;2024-01-15T05:08:27;91870.63;;;-3.74;80.85
85266;BME280;75676;49.522;19.724;2024-01-15T05:10:52;91859.50;;;-3.71;78.72
85266;BME280;75676;49.522;19.724;2024-01-15T05:13:18;91848.84;;;-3.73;79.54
85266;BME280;75676;49.522;19.724;2024-01-15T05:15:44;91840.94;;;-3.63;78.57
85266;BME280;75676;49.522;19.724;2024-01-15T05:18:09;91849.41;;;-3.62;77.13
85266;BME280;75676;49.522;19.724;2024-01-15T05:20:35;91844.50;;;-3.57;77.61
85266;BME280;75676;49.522;19.724;2024-01-15T05:23:01;91842.16;;;-3.71;77.93
85266;BME280;75676;49.522;19.724;2024-01-15T05:25:27;91828.84;;;-3.69;78.98
85266;BME280;75676;49.522;19.724;2024-01-15T05:27:52;91847.00;;;-3.73;78.87
85266;BME280;75676;49.522;19.724;2024-01-15T05:30:18;91839.75;;;-3.82;79.02
85266;BME280;75676;49.522;19.724;2024-01-15T05:32:44;91845.16;;;-3.72;78.95
85266;BME280;75676;49.522;19.724;2024-01-15T05:35:10;91842.78;;;-3.63;78.61
85266;BME280;75676;49.522;19.724;2024-01-15T05:37:36;91838.47;;;-3.70;79.97
85266;BME280;75676;49.522;19.724;2024-01-15T05:40:01;91834.75;;;-3.69;79.88
85266;BME280;75676;49.522;19.724;2024-01-15T05:42:30;91844.25;;;-3.62;79.48
85266;BME280;75676;49.522;19.724;2024-01-15T05:44:57;91838.63;;;-3.57;79.38
85266;BME280;75676;49.522;19.724;2024-01-15T05:47:25;91835.06;;;-3.67;78.93
85266;BME280;75676;49.522;19.724;2024-01-15T05:49:50;91838.28;;;-3.59;77.89
85266;BME280;75676;49.522;19.724;2024-01-15T05:52:16;91845.94;;;-3.56;78.20
85266;BME280;75676;49.522;19.724;2024-01-15T05:54:42;91842.91;;;-3.51;77.80
85266;BME280;75676;49.522;19.724;2024-01-15T05:57:08;91843.59;;;-3.47;77.58
85266;BME280;75676;49.522;19.724;2024-01-15T05:59:33;91843.63;;;-3.50;79.23
85266;BME280;75676;49.522;19.724;2024-01-15T06:02:01;91840.47;;;-3.38;79.11
85266;BME280;75676;49.522;19.724;2024-01-15T06:04:27;91847.75;;;-3.33;78.33
85266;BME280;75676;49.522;19.724;2024-01-15T06:06:53;91837.34;;;-3.49;78.84
85266;BME280;75676;49.522;19.724;2024-01-15T06:09:18;91829.75;;;-3.56;79.43
85266;BME280;75676;49.522;19.724;2024-01-15T06:11:44;91822.91;;;-3.66;79.38
85266;BME280;75676;49.522;19.724;2024-01-15T06:14:10;91829.31;;;-3.74;79.78
85266;BME280;75676;49.522;19.724;2024-01-15T06:16:36;91842.88;;;-3.70;79.20
85266;BME280;75676;49.522;19.724;2024-01-15T06:19:02;91840.31;;;-3.70;79.47
85266;BME280;75676;49.522;19.724;2024-01-15T06:21:28;91842.44;;;-3.65;79.02
85266;BME280;75676;49.522;19.724;2024-01-15T06:23:54;91847.59;;;-3.65;79.56
85266;BME280;75676;49.522;19.724;2024-01-15T06:26:22;91840.47;;;-3.58;79.27
85266;BME280;75676;49.522;19.724;2024-01-15T06:28:48;91834.75;;;-3.69;79.47
85266;BME280;75676;49.522;19.724;2024-01-15T06:31:14;91838.72;;;-3.64;79.56
85266;BME280;75676;49.522;19.724;2024-01-15T06:33:40;91828.41;;;-3.64;79.59
85266;BME280;75676;49.522;19.724;2024-01-15T06:36:06;91820.59;;;-3.61;79.47
85266;BME280;75676;49.522;19.724;2024-01-15T06:38:32;91822.66;;;-3.52;78.92
85266;BME280;75676;49.522;19.724;2024-01-15T06:40:58;91820.53;;;-3.57;79.16
85266;BME280;75676;49.522;19.724;2024-01-15T06:43:24;91826.22;;;-3.66;78.72
85266;BME280;75676;49.522;19.724;2024-01-15T06:45:50;91822.78;;;-3.59;78.70
85266;BME280;75676;49.522;19.724;2024-01-15T06:48:17;91839.06;;;-3.62;78.25
85266;BME280;75676;49.522;19.724;2024-01-15T06:50:43;91838.63;;;-3.57;79.32
85266;BME280;75676;49.522;19.724;2024-01-15T06:53:09;91850.72;;;-3.54;78.42
85266;BME280;75676;49.522;19.724;2024-01-15T06:55:34;91846.19;;;-3.47;78.68
85266;BME280;75676;49.522;19.724;2024-01-15T06:58:03;91845.53;;;-3.31;79.07
85266;BME280;75676;49.522;19.724;2024-01-15T07:00:30;91838.63;;;-3.18;78.04
85266;BME280;75676;49.522;19.724;2024-01-15T07:02:56;91839.88;;;-3.26;77.67
85266;BME280;75676;49.522;19.724;2024-01-15T07:05:23;91836.50;;;-3.23;77.73
85266;BME280;75676;49.522;19.724;2024-01-15T07:07:49;91839.16;;;-3.26;77.88
85266;BME280;75676;49.522;19.724;2024-01-15T07:10:18;91840.22;;;-3.24;77.78
85266;BME280;75676;49.522;19.724;2024-01-15T07:12:44;91842.00;;;-3.21;78.19
85266;BME280;75676;49.522;19.724;2024-01-15T07:15:10;91835.72;;;-3.20;78.14
85266;BME280;75676;49.522;19.724;2024-01-15T07:17:36;91844.84;;;-3.15;77.92
85266;BME280;75676;49.522;19.724;2024-01-15T07:20:07;91850.28;;;-3.10;77.84
85266;BME280;75676;49.522;19.724;2024-01-15T07:22:36;91852.47;;;-3.08;77.08
85266;BME280;75676;49.522;19.724;2024-01-15T07:25:04;91856.78;;;-3.02;77.69
85266;BME280;75676;49.522;19.724;2024-01-15T07:27:31;91862.81;;;-3.08;77.66
85266;BME280;75676;49.522;19.724;2024-01-15T07:29:57;91859.78;;;-3.03;77.28
85266;BME280;75676;49.522;19.724;2024-01-15T07:32:24;91862.81;;;-3.08;77.79
85266;BME280;75676;49.522;19.724;2024-01-15T07:34:50;91852.34;;;-3.21;78.10
85266;BME280;75676;49.522;19.724;2024-01-15T07:37:16;91864.00;;;-3.13;77.98
85266;BME280;75676;49.522;19.724;2024-01-15T07:39:41;91868.78;;;-3.11;78.32
85266;BME280;75676;49.522;19.724;2024-01-15T07:42:07;91866.38;;;-3.22;78.40
85266;BME280;75676;49.522;19.724;2024-01-15T07:44:33;91876.25;;;-3.17;78.38
85266;BME280;75676;49.522;19.724;2024-01-15T07:46:59;91874.47;;;-3.20;78.53
85266;BME280;75676;49.522;19.724;2024-01-15T07:49:27;91883.81;;;-3.26;79.27
85266;BME280;75676;49.522;19.724;2024-01-15T07:51:53;91891.75;;;-3.17;79.02
85266;BME280;75676;49.522;19.724;2024-01-15T07:54:19;91889.56;;;-3.18;79.49
85266;BME280;75676;49.522;19.724;2024-01-15T07:56:55;91890.28;;;-3.18;79.84
85266;BME280;75676;49.522;19.724;2024-01-15T07:59:21;91899.03;;;-3.12;79.10
85266;BME280;75676;49.522;19.724;2024-01-15T08:01:47;91886.59;;;-3.17;79.90
85266;BME280;75676;49.522;19.724;2024-01-15T08:04:13;91896.88;;;-3.13;80.09
85266;BME280;75676;49.522;19.724;2024-01-15T08:06:39;91893.22;;;-3.16;79.94
85266;BME280;75676;49.522;19.724;2024-01-15T08:09:05;91889.19;;;-3.17;79.26
85266;BME280;75676;49.522;19.724;2024-01-15T08:11:31;91898.28;;;-3.09;79.82
85266;BME280;75676;49.522;19.724;2024-01-15T08:13:58;91896.81;;;-3.10;78.90
85266;BME280;75676;49.522;19.724;2024-01-15T08:16:24;91900.91;;;-3.12;79.53
85266;BME280;75676;49.522;19.724;2024-01-15T08:18:51;91899.19;;;-3.19;79.67
85266;BME280;75676;49.522;19.724;2024-01-15T08:21:18;91900.91;;;-3.12;78.94
85266;BME280;75676;49.522;19.724;2024-01-15T08:23:44;91897.94;;;-3.11;78.70
85266;BME280;75676;49.522;19.724;2024-01-15T08:26:10;91892.16;;;-2.99;78.14
85266;BME280;75676;49.522;19.724;2024-01-15T08:28:36;91896.22;;;-2.98;78.32
85266;BME280;75676;49.522;19.724;2024-01-15T08:31:02;91881.56;;;-3.04;78.04
85266;BME280;75676;49.522;19.724;2024-01-15T08:33:29;91885.34;;;-3.09;78.36
85266;BME280;75676;49.522;19.724;2024-01-15T08:35:57;91881.66;;;-3.08;79.07
85266;BME280;75676;49.522;19.724;2024-01-15T08:38:23;91875.41;;;-3.10;79.46
85266;BME280;75676;49.522;19.724;2024-01-15T08:40:49;91884.75;;;-3.16;79.93
85266;BME280;75676;49.522;19.724;2024-01-15T08:43:15;91890.28;;;-3.18;78.83
85266;BME280;75676;49.522;19.724;2024-01-15T08:45:41;91896.19;;;-3.17;78.99
85266;BME280;75676;49.522;19.724;2024-01-15T08:48:07;91893.88;;;-3.12;79.21
85266;BME280;75676;49.522;19.724;2024-01-15T08:50:32;91879.50;;;-3.13;79.20
85266;BME280;75676;49.522;19.724;2024-01-15T08:52:59;91885.00;;;-3.11;78.69
85266;BME280;75676;49.522;19.724;2024-01-15T08:55:25;91871.69;;;-3.09;78.31
85266;BME280;75676;49.522;19.724;2024-01-15T08:57:50;91874.59;;;-3.07;78.15
85266;BME280;75676;49.522;19.724;2024-01-15T09:00:18;91878.13;;;-2.98;77.57
85266;BME280;75676;49.522;19.724;2024-01-15T09:02:44;91875.72;;;-2.88;77.46
85266;BME280;75676;49.522;19.724;2024-01-15T09:05:10;91878.44;;;-2.76;77.06
85266;BME280;75676;49.522;19.724;2024-01-15T09:07:36;91881.56;;;-2.84;76.16
85266;BME280;75676;49.522;19.724;2024-01-15T09:10:02;91891.28;;;-2.72;76.71
85266;BME280;75676;49.522;19.724;2024-01-15T09:12:28;91889.84;;;-2.73;75.86
85266;BME280;75676;49.522;19.724;2024-01-15T09:14:55;91890.81;;;-2.67;75.80
85266;BME280;75676;49.522;19.724;2024-01-15T09:17:21;91884.44;;;-2.63;75.43
85266;BME280;75676;49.522;19.724;2024-01-15T09:19:49;91886.31;;;-2.63;75.65
85266;BME280;75676;49.522;19.724;2024-01-15T09:22:15;91877.50;;;-2.66;75.08
85266;BME280;75676;49.522;19.724;2024-01-15T09:24:45;91887.13;;;-2.66;75.32
85266;BME280;75676;49.522;19.724;2024-01-15T09:27:11;91879.63;;;-2.80;75.08
85266;BME280;75676;49.522;19.724;2024-01-15T09:29:38;91881.81;;;-2.79;74.44
85266;BME280;75676;49.522;19.724;2024-01-15T09:32:06;91892.81;;;-2.75;74.64
85266;BME280;75676;49.522;19.724;2024-01-15T09:34:36;91893.53;;;-2.55;73.66
85266;BME280;75676;49.522;19.724;2024-01-15T09:37:01;91893.38;;;-2.47;73.92
85266;BME280;75676;49.522;19.724;2024-01-15T09:39:28;91893.94;;;-2.56;74.76
85266;BME280;75676;49.522;19.724;2024-01-15T09:41:54;91886.13;;;-2.36;74.31
85266;BME280;75676;49.522;19.724;2024-01-15T09:44:21;91901.59;;;-2.17;72.89
85266;BME280;75676;49.522;19.724;2024-01-15T09:46:47;91896.81;;;-2.18;72.46
85266;BME280;75676;49.522;19.724;2024-01-15T09:49:18;91896.94;;;-2.05;72.73
85266;BME280;75676;49.522;19.724;2024-01-15T09:51:45;91899.66;;;-2.13;72.62
85266;BME280;75676;49.522;19.724;2024-01-15T09:54:11;91907.09;;;-1.98;71.75
85266;BME280;75676;49.522;19.724;2024-01-15T09:56:39;91898.28;;;-2.17;70.77
85266;BME280;75676;49.522;19.724;2024-01-15T09:59:05;91901.59;;;-2.17;70.64
85266;BME280;75676;49.522;19.724;2024-01-15T10:01:32;91890.03;;;-2.28;71.21
85266;BME280;75676;49.522;19.724;2024-01-15T10:04:01;91888.94;;;-2.47;72.58
85266;BME280;75676;49.522;19.724;2024-01-15T10:06:27;91885.03;;;-2.55;72.47
85266;BME280;75676;49.522;19.724;2024-01-15T10:08:54;91888.66;;;-2.33;72.47
85266;BME280;75676;49.522;19.724;2024-01-15T10:11:21;91872.78;;;-2.35;71.85
85266;BME280;75676;49.522;19.724;2024-01-15T10:13:47;91884.22;;;-2.32;72.64
85266;BME280;75676;49.522;19.724;2024-01-15T10:16:17;91879.34;;;-2.30;72.43
85266;BME280;75676;49.522;19.724;2024-01-15T10:18:43;91885.75;;;-2.19;71.81
85266;BME280;75676;49.522;19.724;2024-01-15T10:21:09;91894.13;;;-2.31;72.33
85266;BME280;75676;49.522;19.724;2024-01-15T10:23:34;91901.16;;;-2.31;72.33
85266;BME280;75676;49.522;19.724;2024-01-15T10:26:02;91891.50;;;-2.47;73.16
85266;BME280;75676;49.522;19.724;2024-01-15T10:28:29;91896.63;;;-2.43;72.58
85266;BME280;75676;49.522;19.724;2024-01-15T10:30:57;91897.69;;;-2.41;72.92
85266;BME280;75676;49.522;19.724;2024-01-15T10:33:25;91893.75;;;-2.29;72.23
85266;BME280;75676;49.522;19.724;2024-01-15T10:35:55;91894.34;;;-2.41;72.04
85266;BME280;75676;49.522;19.724;2024-01-15T10:38:24;91880.75;;;-2.62;72.88
85266;BME280;75676;49.522;19.724;2024-01-15T10:40:54;91876.78;;;-2.66;72.66
85266;BME280;75676;49.522;19.724;2024-01-15T10:43:21;91880.34;;;-2.60;74.25
85266;BME280;75676;49.522;19.724;2024-01-15T10:45:48;91866.72;;;-2.64;73.82
85266;BME280;75676;49.522;19.724;2024-01-15T10:48:17;91869.06;;;-2.70;73.66
85266;BME280;75676;49.522;19.724;2024-01-15T10:50:44;91860.88;;;-2.84;73.92
85266;BME280;75676;49.522;19.724;2024-01-15T10:53:15;91870.56;;;-2.88;74.37
85266;BME280;75676;49.522;19.724;2024-01-15T10:55:42;91869.44;;;-2.87;74.49
85266;BME280;75676;49.522;19.724;2024-01-15T10:58:09;91869.69;;;-2.82;74.22
85266;BME280;75676;49.522;19.724;2024-01-15T11:00:36;91874.44;;;-2.80;73.93
85266;BME280;75676;49.522;19.724;2024-01-15T11:03:05;91868.75;;;-2.72;73.51
85266;BME280;75676;49.522;19.724;2024-01-15T11:05:38;91860.09;;;-2.81;74.68
85266;BME280;75676;49.522;19.724;2024-01-15T11:08:07;91860.00;;;-2.78;74.00
85266;BME280;75676;49.522;19.724;2024-01-15T11:10:44;91850.91;;;-2.66;73.92
85266;BME280;75676;49.522;19.724;2024-01-15T11:16:01;91860.22;;;-2.88;74.46
85266;BME280;75676;49.522;19.724;2024-01-15T11:24:01;91870.28;;;-2.74;73.39
85266;BME280;75676;49.522;19.724;2024-01-15T11:26:29;91862.88;;;-2.92;73.82
85266;BME280;75676;49.522;19.724;2024-01-15T11:28:57;91861.38;;;-2.73;73.40
85266;BME280;75676;49.522;19.724;2024-01-15T11:31:30;91857.38;;;-2.94;73.52
85266;BME280;75676;49.522;19.724;2024-01-15T11:34:15;91856.31;;;-2.97;73.94
85266;BME280;75676;49.522;19.724;2024-01-15T11:42:01;91851.59;;;-3.02;74.06
85266;BME280;75676;49.522;19.724;2024-01-15T11:44:29;91848.75;;;-2.87;74.26
85266;BME280;75676;49.522;19.724;2024-01-15T11:47:01;91844.50;;;-2.78;73.50
85266;BME280;75676;49.522;19.724;2024-01-15T11:49:58;91848.16;;;-2.75;72.17
85266;BME280;75676;49.522;19.724;2024-01-15T11:52:25;91844.66;;;-2.69;72.57
85266;BME280;75676;49.522;19.724;2024-01-15T11:57:54;91848.88;;;-2.59;71.85
85266;BME280;75676;49.522;19.724;2024-01-15T12:00:23;91853.81;;;-2.64;72.34
85266;BME280;75676;49.522;19.724;2024-01-15T12:02:50;91859.13;;;-2.71;72.07
85266;BME280;75676;49.522;19.724;2024-01-15T12:05:20;91849.41;;;-2.83;73.18
85266;BME280;75676;49.522;19.724;2024-01-15T12:07:47;91847.19;;;-2.65;72.73
85266;BME280;75676;49.522;19.724;2024-01-15T12:10:16;91850.59;;;-2.52;71.90
85266;BME280;75676;49.522;19.724;2024-01-15T12:15:27;91839.16;;;-2.19;70.35
85266;BME280;75676;49.522;19.724;2024-01-15T12:17:55;91850.97;;;-2.34;70.66
85266;BME280;75676;49.522;19.724;2024-01-15T12:20:26;91846.50;;;-2.33;69.97
85266;BME280;75676;49.522;19.724;2024-01-15T12:22:53;91853.22;;;-2.36;70.12
85266;BME280;75676;49.522;19.724;2024-01-15T12:25:20;91854.25;;;-2.49;71.53
85266;BME280;75676;49.522;19.724;2024-01-15T12:27:48;91839.28;;;-2.42;70.25
85266;BME280;75676;49.522;19.724;2024-01-15T12:30:15;91842.22;;;-2.40;70.22
85266;BME280;75676;49.522;19.724;2024-01-15T12:32:43;91853.75;;;-2.61;70.87
85266;BME280;75676;49.522;19.724;2024-01-15T12:35:10;91844.38;;;-2.55;70.70
85266;BME280;75676;49.522;19.724;2024-01-15T12:37:40;91847.28;;;-2.53;69.84
85266;BME280;75676;49.522;19.724;2024-01-15T12:40:07;91853.28;;;-2.56;70.14
85266;BME280;75676;49.522;19.724;2024-01-15T12:42:41;91851.69;;;-2.69;69.80
85266;BME280;75676;49.522;19.724;2024-01-15T12:45:11;91840.38;;;-2.75;71.05
85266;BME280;75676;49.522;19.724;2024-01-15T12:47:37;91847.25;;;-2.69;69.91
85266;BME280;75676;49.522;19.724;2024-01-15T12:50:10;91838.66;;;-2.82;70.44
85266;BME280;75676;49.522;19.724;2024-01-15T12:52:39;91846.75;;;-2.80;70.20
85266;BME280;75676;49.522;19.724;2024-01-15T12:55:07;91850.34;;;-2.93;70.87
85266;BME280;75676;49.522;19.724;2024-01-15T12:57:34;91843.13;;;-3.02;71.06
85266;BME280;75676;49.522;19.724;2024-01-15T13:00:00;91846.06;;;-3.20;70.71
85266;BME280;75676;49.522;19.724;2024-01-15T13:02:26;91848.53;;;-2.97;71.25
85266;BME280;75676;49.522;19.724;2024-01-15T13:04:52;91848.50;;;-2.93;70.75
85266;BME280;75676;49.522;19.724;2024-01-15T13:07:19;91847.72;;;-3.10;70.41
85266;BME280;75676;49.522;19.724;2024-01-15T13:09:45;91857.75;;;-2.96;70.86